Karditsa, Greece
Current Conditions -  °F | °C
As of 10:50 AM on Friday 31 Oct 2014 (Local Time) from LGLR Reporting Station
Broken Clouds Broken Clouds  
Wind Chill: 13°   Ceiling: 8000
Heat Index: 13°   Visibility: 6mi
Dew Point:   Wind: 7mph
Humidity: 72%   Direction: 310°NW
Pressure: 30.15"   Gusts: NA
Location:  39.37°N, 21.92°E
Report Text: LGLR 310750Z 31006KT 9999 FEW030 BKN080 13/08 Q1021 BLU
Loading
Personal Weather Stations






























Interactive Weather Map
Tropical Storm Tracking
New forecast layout! Learn more

10-Day Weather Forecast

Advertisements
Track Severe Weather on mobile